Time;durP1;ratioP1;P1;durP2;ratioP2;P2;SDS_P1;SDS_P2;PMS_P1;PMS_P2;Temp;Humidity;BMP_temperature;BMP_pressure;BME280_temperature;BME280_humidity;BME280_pressure;Samples;Min_cycle;Max_cycle;Signal;HPM_P1;HPM_P2
2022/04/22 00:01:06;;;;;;;7.10;3.78;;;10.70;99.90;;;;;;5092692;28;20024;-77
2022/04/22 00:03:32;;;;;;;6.65;4.30;;;10.60;99.90;;;;;;5097294;28;20041;-77
2022/04/22 00:05:58;;;;;;;7.97;4.65;;;10.60;99.90;;;;;;5100482;28;20051;-77
2022/04/22 00:08:23;;;;;;;7.05;4.70;;;10.50;99.90;;;;;;5089738;28;20047;-77
2022/04/22 00:13:33;;;;;;;7.55;3.95;;;10.50;99.90;;;;;;5096087;28;20514;-77
2022/04/22 00:15:59;;;;;;;8.95;4.60;;;10.50;99.90;;;;;;5073707;28;20091;-78
2022/04/22 00:18:24;;;;;;;8.00;4.00;;;10.40;99.90;;;;;;5097818;28;20403;-77
2022/04/22 00:20:50;;;;;;;8.27;4.40;;;10.40;99.90;;;;;;5092006;28;20036;-77
2022/04/22 00:23:16;;;;;;;10.13;5.05;;;10.30;99.90;;;;;;5084440;28;20131;-77
2022/04/22 00:25:42;;;;;;;7.43;4.88;;;10.30;99.90;;;;;;5072659;28;20040;-77
2022/04/22 00:28:08;;;;;;;9.70;5.38;;;10.30;99.90;;;;;;5079912;28;20090;-77
2022/04/22 00:30:33;;;;;;;6.03;3.92;;;10.30;99.90;;;;;;5082866;28;20048;-77
2022/04/22 00:33:00;;;;;;;8.07;4.32;;;10.30;99.90;;;;;;5104170;28;20097;-77
2022/04/22 00:35:26;;;;;;;6.97;4.18;;;10.20;99.90;;;;;;5087310;28;20050;-77
2022/04/22 00:37:52;;;;;;;6.90;4.57;;;10.20;99.90;;;;;;5105317;28;20633;-78
2022/04/22 00:40:17;;;;;;;5.50;3.60;;;10.20;99.90;;;;;;5061484;28;20040;-78
2022/04/22 00:42:43;;;;;;;8.48;5.05;;;10.10;99.90;;;;;;5089943;28;20182;-78
2022/04/22 00:45:09;;;;;;;9.88;5.20;;;10.00;99.90;;;;;;5074998;28;20062;-76
2022/04/22 00:47:35;;;;;;;8.57;4.90;;;10.00;99.90;;;;;;5094040;28;20117;-76
2022/04/22 00:50:01;;;;;;;8.13;5.22;;;10.00;99.90;;;;;;5091173;28;20048;-76
2022/04/22 00:52:27;;;;;;;8.48;4.95;;;9.90;99.90;;;;;;5091249;28;20124;-77
2022/04/22 00:54:53;;;;;;;7.93;4.63;;;9.90;99.90;;;;;;5094923;28;20031;-77
2022/04/22 00:57:18;;;;;;;5.65;4.07;;;9.90;99.90;;;;;;5110474;28;20046;-77
2022/04/22 00:59:45;;;;;;;10.90;5.10;;;9.80;99.90;;;;;;5087262;28;20548;-77
2022/04/22 01:02:11;;;;;;;8.73;5.35;;;9.80;99.90;;;;;;5088925;28;20078;-77
2022/04/22 01:10:08;;;;;;;9.63;5.22;;;9.70;99.90;;;;;;5100813;28;20050;-77
2022/04/22 01:12:34;;;;;;;9.85;5.03;;;9.70;99.90;;;;;;5091733;28;20044;-77
2022/04/22 01:15:00;;;;;;;6.13;4.30;;;9.60;99.90;;;;;;5096182;28;20051;-77
2022/04/22 01:17:26;;;;;;;8.85;5.13;;;9.60;99.90;;;;;;5092287;28;20117;-77
2022/04/22 01:19:54;;;;;;;7.90;4.53;;;9.60;99.90;;;;;;5080611;28;20036;-78
2022/04/22 01:22:20;;;;;;;7.35;4.55;;;9.50;99.90;;;;;;5097235;28;20091;-77
2022/04/22 01:24:47;;;;;;;5.32;3.95;;;9.50;99.90;;;;;;5100238;28;20115;-77
2022/04/22 01:27:14;;;;;;;7.70;4.70;;;9.50;99.90;;;;;;5086408;28;20371;-77
2022/04/22 01:29:40;;;;;;;8.18;5.25;;;9.40;99.90;;;;;;5088190;28;20079;-77
2022/04/22 01:32:06;;;;;;;11.13;5.65;;;9.40;99.90;;;;;;5070719;28;20082;-77
2022/04/22 01:34:32;;;;;;;5.53;3.97;;;9.40;99.90;;;;;;5092870;28;20035;-77
2022/04/22 01:36:58;;;;;;;8.77;5.18;;;9.40;99.90;;;;;;5081621;28;20040;-77
2022/04/22 01:39:24;;;;;;;11.20;5.72;;;9.30;99.90;;;;;;5096487;28;20415;-77
2022/04/22 01:41:49;;;;;;;8.20;4.88;;;9.30;99.90;;;;;;5092989;28;20051;-77
2022/04/22 01:44:16;;;;;;;8.02;4.75;;;9.20;99.90;;;;;;5088547;28;20039;-77
2022/04/22 01:46:42;;;;;;;8.65;5.05;;;9.20;99.90;;;;;;5070572;28;20036;-77
2022/04/22 01:49:08;;;;;;;;;;;9.20;99.90;;;;;;5064512;28;20398;-77
2022/04/22 01:51:34;;;;;;;8.70;4.72;;;9.10;99.90;;;;;;5096155;28;19919;-77
2022/04/22 01:53:59;;;;;;;10.38;5.18;;;9.10;99.90;;;;;;5097242;28;20047;-77
2022/04/22 01:56:26;;;;;;;7.82;4.93;;;9.00;99.90;;;;;;5069313;28;20047;-77
2022/04/22 01:58:51;;;;;;;9.43;5.28;;;9.00;99.90;;;;;;5090539;28;20150;-76
2022/04/22 02:01:17;;;;;;;9.52;5.18;;;9.00;99.90;;;;;;5071027;28;20119;-77
2022/04/22 02:03:43;;;;;;;7.30;4.72;;;8.90;99.90;;;;;;5073406;28;20052;-76
2022/04/22 02:06:08;;;;;;;8.50;5.60;;;8.90;99.90;;;;;;5091024;28;20445;-77
2022/04/22 02:08:36;;;;;;;6.82;4.90;;;8.80;99.90;;;;;;5091205;28;20044;-76
2022/04/22 02:11:02;;;;;;;8.05;4.63;;;8.80;99.90;;;;;;5091711;28;20062;-76
2022/04/22 02:13:28;;;;;;;10.15;5.03;;;8.80;99.90;;;;;;5092039;28;20036;-77
2022/04/22 02:15:53;;;;;;;8.02;4.43;;;8.70;99.90;;;;;;5073991;28;20047;-77
2022/04/22 02:18:19;;;;;;;9.93;5.18;;;8.70;99.90;;;;;;5091722;28;20055;-75
2022/04/22 02:20:45;;;;;;;8.80;4.57;;;8.70;99.90;;;;;;5077762;28;20050;-76
2022/04/22 02:23:10;;;;;;;8.07;5.20;;;8.70;99.90;;;;;;5106072;28;20165;-76
2022/04/22 02:25:36;;;;;;;9.63;5.07;;;8.70;99.90;;;;;;5073102;28;20035;-76
2022/04/22 02:30:46;;;;;;;9.00;5.00;;;8.60;99.90;;;;;;5101896;28;20533;-76
2022/04/22 02:33:13;;;;;;;8.38;4.75;;;8.60;99.90;;;;;;5075982;28;20076;-77
2022/04/22 02:35:39;;;;;;;8.48;5.10;;;8.60;99.90;;;;;;5110999;28;20031;-77
2022/04/22 02:38:05;;;;;;;8.48;4.32;;;8.50;99.90;;;;;;5093806;28;20349;-77
2022/04/22 02:45:58;;;;;;;6.88;4.35;;;8.40;99.90;;;;;;5079355;28;20047;-76
2022/04/22 02:48:24;;;;;;;6.70;4.47;;;8.40;99.90;;;;;;5080742;28;20052;-77
2022/04/22 02:50:50;;;;;;;8.15;4.57;;;8.30;99.90;;;;;;5083008;28;20051;-77
2022/04/22 02:53:16;;;;;;;8.32;4.60;;;8.40;99.90;;;;;;5103435;28;20201;-77
2022/04/22 02:55:48;;;;;;;6.95;4.75;;;8.30;99.90;;;;;;5095226;28;20074;-77
2022/04/22 02:58:14;;;;;;;8.95;5.00;;;8.30;99.90;;;;;;5092013;28;20048;-77
2022/04/22 03:00:39;;;;;;;10.13;5.32;;;8.20;99.90;;;;;;5077142;28;20498;-77
2022/04/22 03:03:05;;;;;;;7.32;4.63;;;8.20;99.90;;;;;;5094067;28;20068;-76
2022/04/22 03:05:31;;;;;;;10.13;4.35;;;8.20;99.90;;;;;;5103049;28;20390;-77
2022/04/22 03:07:56;;;;;;;6.45;3.80;;;8.20;99.90;;;;;;5106291;28;20097;-76
2022/04/22 03:10:22;;;;;;;9.05;4.00;;;8.20;99.90;;;;;;5104878;28;20088;-76
2022/04/22 03:12:48;;;;;;;8.65;4.40;;;8.10;99.90;;;;;;5069341;28;20386;-77
2022/04/22 03:15:16;;;;;;;6.35;4.10;;;8.10;99.90;;;;;;5108149;28;20080;-77
2022/04/22 03:17:41;;;;;;;7.65;4.60;;;8.10;99.90;;;;;;5107811;28;20055;-78
2022/04/22 03:20:08;;;;;;;8.05;5.05;;;8.10;99.90;;;;;;5095651;28;20070;-75
2022/04/22 03:22:33;;;;;;;6.65;4.50;;;8.10;99.90;;;;;;5102436;28;20039;-76
2022/04/22 03:25:00;;;;;;;10.02;4.28;;;8.00;99.90;;;;;;5109510;28;20413;-76
2022/04/22 03:27:26;;;;;;;7.40;4.10;;;8.00;99.90;;;;;;5083879;28;20043;-77
2022/04/22 03:29:51;;;;;;;7.03;3.85;;;8.00;99.90;;;;;;5099339;28;20487;-77
2022/04/22 03:32:17;;;;;;;9.27;4.53;;;8.00;99.90;;;;;;5096034;28;20044;-73
2022/04/22 03:34:43;;;;;;;9.15;4.88;;;8.00;99.90;;;;;;5040462;28;20043;-73
2022/04/22 03:37:08;;;;;;;6.43;4.60;;;8.00;99.90;;;;;;5086853;28;20043;-73
2022/04/22 03:39:34;;;;;;;6.78;3.83;;;8.00;99.90;;;;;;5106866;28;20504;-73
2022/04/22 03:42:00;;;;;;;5.88;4.05;;;8.00;99.90;;;;;;5101616;28;20440;-74
2022/04/22 03:44:26;;;;;;;;;;;7.90;99.90;;;;;;5084461;28;20047;-73
2022/04/22 03:46:52;;;;;;;7.15;4.47;;;7.90;99.90;;;;;;5073225;28;19919;-73
2022/04/22 03:49:18;;;;;;;7.20;4.90;;;7.90;99.90;;;;;;5090021;28;20051;-72
2022/04/22 03:51:44;;;;;;;6.60;3.80;;;7.90;99.90;;;;;;5076085;28;20453;-73
2022/04/22 03:54:09;;;;;;;7.05;4.00;;;7.90;99.90;;;;;;5081154;28;20143;-72
2022/04/22 03:59:19;;;;;;;9.65;4.90;;;7.80;99.90;;;;;;5080272;28;20059;-73
2022/04/22 04:01:45;;;;;;;6.60;3.80;;;7.80;99.90;;;;;;5057483;28;20041;-73
2022/04/22 04:04:11;;;;;;;9.93;4.40;;;7.80;99.90;;;;;;5071526;28;20391;-73
2022/04/22 04:06:37;;;;;;;6.03;4.07;;;7.70;99.90;;;;;;5105176;28;20455;-73
2022/04/22 04:17:15;;;;;;;6.18;4.50;;;7.70;99.90;;;;;;5083681;28;20522;-73
2022/04/22 04:25:09;;;;;;;6.20;4.03;;;7.60;99.90;;;;;;5090807;28;20135;-73
2022/04/22 04:27:36;;;;;;;7.22;4.10;;;7.50;99.90;;;;;;5088420;28;20131;-73
2022/04/22 04:30:06;;;;;;;5.85;3.30;;;7.50;99.90;;;;;;5072386;28;20055;-73
2022/04/22 04:32:32;;;;;;;5.47;3.50;;;7.50;99.90;;;;;;5099769;28;20097;-76
2022/04/22 04:34:57;;;;;;;5.75;3.45;;;7.50;99.90;;;;;;5065477;28;20035;-76
2022/04/22 04:37:23;;;;;;;7.35;4.25;;;7.40;99.90;;;;;;5106177;28;20040;-76
2022/04/22 04:39:49;;;;;;;5.50;4.18;;;7.40;99.90;;;;;;5107515;28;20039;-75
2022/04/22 04:42:15;;;;;;;8.27;4.10;;;7.40;99.90;;;;;;5086255;28;20505;-76
2022/04/22 04:44:41;;;;;;;4.82;4.10;;;7.40;99.90;;;;;;5075777;28;20044;-76
2022/04/22 04:47:07;;;;;;;5.93;4.05;;;7.40;99.90;;;;;;5057226;28;20476;-75
2022/04/22 04:49:32;;;;;;;5.18;3.42;;;7.40;99.90;;;;;;5078944;28;20093;-76
2022/04/22 04:51:58;;;;;;;4.80;3.33;;;7.30;99.90;;;;;;5074522;28;20046;-75
2022/04/22 04:54:24;;;;;;;5.70;3.50;;;7.30;99.90;;;;;;5075826;28;20051;-76
2022/04/22 04:56:52;;;;;;;4.68;3.17;;;7.30;99.90;;;;;;5084326;28;20032;-75
2022/04/22 04:59:18;;;;;;;5.70;4.00;;;7.30;99.90;;;;;;5082335;28;20052;-75
2022/04/22 05:01:44;;;;;;;4.90;3.47;;;7.30;99.90;;;;;;5070173;28;20050;-75
2022/04/22 05:04:09;;;;;;;6.22;3.28;;;7.30;99.90;;;;;;5088630;28;20036;-75
2022/04/22 05:06:35;;;;;;;4.90;3.17;;;7.40;99.90;;;;;;5046124;28;20136;-75
2022/04/22 05:09:01;;;;;;;4.40;3.15;;;7.30;99.90;;;;;;5075391;28;20772;-75
2022/04/22 05:11:27;;;;;;;5.97;3.40;;;7.40;99.90;;;;;;5087553;28;20040;-75
2022/04/22 05:13:52;;;;;;;4.30;3.30;;;7.40;99.90;;;;;;5092290;28;20460;-77
2022/04/22 05:16:18;;;;;;;8.20;3.40;;;7.40;99.90;;;;;;5073603;28;20036;-75
2022/04/22 05:18:44;;;;;;;5.53;3.10;;;7.50;99.90;;;;;;5109849;28;20047;-75
2022/04/22 05:21:09;;;;;;;4.30;3.30;;;7.50;99.90;;;;;;5099442;28;20490;-75
2022/04/22 05:23:35;;;;;;;4.80;3.08;;;7.50;99.90;;;;;;5092990;28;20545;-75
2022/04/22 05:26:02;;;;;;;4.85;3.05;;;7.60;99.90;;;;;;5091792;28;20044;-73
2022/04/22 05:28:28;;;;;;;5.93;3.17;;;7.60;99.90;;;;;;5091042;28;20051;-73
2022/04/22 05:33:38;;;;;;;3.72;2.88;;;7.70;99.90;;;;;;5070900;28;20139;-72
2022/04/22 05:36:04;;;;;;;5.78;3.45;;;7.70;99.90;;;;;;5082533;28;20127;-73
2022/04/22 05:38:30;;;;;;;4.78;2.88;;;7.80;99.90;;;;;;5067191;28;20105;-74
2022/04/22 05:40:56;;;;;;;5.97;3.03;;;7.90;99.90;;;;;;5096437;28;20048;-74
2022/04/22 05:43:22;;;;;;;3.40;2.45;;;8.00;99.90;;;;;;5096231;28;20040;-74
2022/04/22 05:45:49;;;;;;;4.78;2.60;;;8.00;99.90;;;;;;5084005;28;20050;-74
2022/04/22 05:48:14;;;;;;;2.97;2.05;;;8.00;99.90;;;;;;5113595;28;20411;-74
2022/04/22 05:50:41;;;;;;;5.10;2.70;;;8.10;99.90;;;;;;5107980;28;20043;-74
2022/04/22 05:53:07;;;;;;;3.50;2.60;;;8.10;99.90;;;;;;5111803;28;20468;-73
2022/04/22 05:55:32;;;;;;;4.22;2.90;;;8.10;99.90;;;;;;5071043;28;20155;-74
2022/04/22 05:57:59;;;;;;;4.13;2.55;;;8.20;99.90;;;;;;5094303;28;20047;-73
2022/04/22 06:00:27;;;;;;;5.30;2.47;;;8.60;99.90;;;;;;5103794;28;20040;-73
2022/04/22 06:02:54;;;;;;;3.38;2.40;;;9.10;99.90;;;;;;5075350;28;20048;-73
2022/04/22 06:05:21;;;;;;;4.68;2.38;;;9.50;99.90;;;;;;5105473;28;20113;-73
2022/04/22 06:07:47;;;;;;;3.75;2.70;;;9.80;99.90;;;;;;5109510;28;20122;-73
2022/04/22 06:10:32;;;;;;;3.75;2.33;;;10.10;99.90;;;;;;5107602;28;20043;-73
2022/04/22 06:13:01;;;;;;;3.95;2.10;;;10.50;99.90;;;;;;5091666;28;20119;-73
2022/04/22 06:15:28;;;;;;;2.97;1.90;;;10.90;99.90;;;;;;5098298;28;20127;-73
2022/04/22 06:17:54;;;;;;;3.47;2.33;;;11.00;99.90;;;;;;5077089;28;20105;-74
2022/04/22 06:20:20;;;;;;;5.82;2.63;;;11.30;99.90;;;;;;5079869;28;20044;-74
2022/04/22 06:22:46;;;;;;;4.53;2.30;;;11.40;99.90;;;;;;5090134;28;20051;-74
2022/04/22 06:25:12;;;;;;;2.15;1.63;;;11.40;99.90;;;;;;5086359;28;20080;-74
2022/04/22 06:27:40;;;;;;;2.50;1.58;;;11.60;99.90;;;;;;5068330;28;20471;-74
2022/04/22 06:30:15;;;;;;;4.35;2.17;;;11.90;99.90;;;;;;5086446;28;20036;-74
2022/04/22 06:32:42;;;;;;;2.88;2.28;;;11.90;99.90;;;;;;5089368;28;20051;-74
2022/04/22 06:35:10;;;;;;;3.67;2.10;;;12.00;99.90;;;;;;5080292;28;20536;-73
2022/04/22 06:37:38;;;;;;;3.15;1.92;;;12.00;99.90;;;;;;5090610;28;20032;-74
2022/04/22 06:45:48;;;;;;;3.13;1.70;;;12.10;99.90;;;;;;5088871;28;20054;-75
2022/04/22 06:48:25;;;;;;;2.72;2.10;;;12.20;99.90;;;;;;5074994;28;20044;-74
2022/04/22 06:50:51;;;;;;;;;;;12.30;99.90;;;;;;5091301;28;20119;-74
2022/04/22 06:53:18;;;;;;;3.08;2.00;;;12.20;99.90;;;;;;5091883;28;19916;-74
2022/04/22 06:55:46;;;;;;;3.38;2.13;;;12.30;99.90;;;;;;5106618;28;20051;-74
2022/04/22 06:58:18;;;;;;;3.63;2.00;;;12.40;99.90;;;;;;5103604;28;20066;-74
2022/04/22 07:00:45;;;;;;;;;;;12.40;99.90;;;;;;5089236;28;20047;-74
2022/04/22 07:03:12;;;;;;;3.33;1.87;;;12.50;99.90;;;;;;5093014;28;19924;-75
2022/04/22 07:05:39;;;;;;;2.20;1.42;;;12.70;99.90;;;;;;5088312;28;20031;-73
2022/04/22 07:08:13;;;;;;;3.05;1.85;;;12.90;99.90;;;;;;5091466;28;20047;-74
2022/04/22 07:10:42;;;;;;;3.55;1.88;;;12.90;99.90;;;;;;5087988;28;20051;-74
2022/04/22 07:13:10;;;;;;;3.30;1.95;;;13.00;99.90;;;;;;5081211;28;20036;-74
2022/04/22 07:15:36;;;;;;;3.00;1.50;;;13.00;99.90;;;;;;5077985;28;20036;-74
2022/04/22 07:18:02;;;;;;;4.00;1.95;;;13.40;99.90;;;;;;5070113;28;20032;-73
2022/04/22 07:20:28;;;;;;;;;;;13.20;99.90;;;;;;5089483;28;20508;-74
2022/04/22 07:22:54;;;;;;;2.72;1.80;;;13.10;99.90;;;;;;5087136;28;19920;-74
2022/04/22 07:25:20;;;;;;;;;;;13.20;99.90;;;;;;5087211;28;20050;-74
2022/04/22 07:27:48;;;;;;;4.25;1.80;;;13.10;99.90;;;;;;5083319;28;19939;-74
2022/04/22 07:30:16;;;;;;;2.63;1.65;;;13.20;99.90;;;;;;5083910;28;20070;-74
2022/04/22 07:32:46;;;;;;;3.10;1.77;;;13.30;99.90;;;;;;5095314;28;20466;-74
2022/04/22 07:35:13;;;;;;;3.40;1.90;;;13.60;99.90;;;;;;5090767;28;20071;-75
2022/04/22 07:37:45;;;;;;;4.32;2.30;;;13.50;99.40;;;;;;5082256;28;20134;-74
2022/04/22 07:40:11;;;;;;;5.03;2.50;;;13.30;98.90;;;;;;5086892;28;20075;-75
2022/04/22 07:42:40;;;;;;;4.30;2.03;;;13.30;99.90;;;;;;5091352;28;20094;-75
2022/04/22 07:47:51;;;;;;;4.28;2.20;;;13.20;99.40;;;;;;5089007;28;20391;-74
2022/04/22 07:50:18;;;;;;;;;;;13.10;99.70;;;;;;5088531;28;20040;-75
2022/04/22 07:52:45;;;;;;;5.07;1.83;;;13.20;99.90;;;;;;5072901;28;19919;-75
2022/04/22 07:55:12;;;;;;;4.65;2.35;;;13.20;99.90;;;;;;5090819;28;20390;-74
2022/04/22 07:57:42;;;;;;;6.40;2.25;;;13.20;99.90;;;;;;5088497;28;20045;-74
2022/04/22 08:00:09;;;;;;;3.67;1.73;;;13.30;99.90;;;;;;5090268;28;20051;-74
2022/04/22 08:02:35;;;;;;;2.92;2.00;;;13.40;99.90;;;;;;5088669;28;20093;-74
2022/04/22 08:05:00;;;;;;;5.03;2.88;;;13.40;99.40;;;;;;5091480;28;20047;-74
2022/04/22 08:07:26;;;;;;;3.00;2.00;;;13.40;99.90;;;;;;5079583;28;20039;-74
2022/04/22 08:09:52;;;;;;;3.25;1.90;;;13.50;99.90;;;;;;5088532;28;20048;-74
2022/04/22 08:12:21;;;;;;;2.85;1.95;;;13.70;99.90;;;;;;5052957;28;20048;-74
2022/04/22 08:14:47;;;;;;;3.25;1.70;;;13.80;99.60;;;;;;5066460;28;20044;-74
2022/04/22 08:17:13;;;;;;;4.97;2.13;;;13.90;99.90;;;;;;5080449;28;20072;-74
2022/04/22 08:19:40;;;;;;;3.30;1.80;;;13.80;99.20;;;;;;5095245;28;20055;-74
2022/04/22 08:22:05;;;;;;;3.22;2.00;;;13.70;99.30;;;;;;5104695;28;20441;-74
2022/04/22 08:24:31;;;;;;;3.72;1.83;;;13.80;99.00;;;;;;5101547;28;20032;-76
2022/04/22 08:26:58;;;;;;;4.75;2.05;;;14.10;99.20;;;;;;5071551;28;20034;-75
2022/04/22 08:29:24;;;;;;;6.38;2.53;;;14.10;99.20;;;;;;5067809;28;20048;-75
2022/04/22 08:31:52;;;;;;;4.03;2.03;;;14.20;99.00;;;;;;5079499;28;20054;-75
2022/04/22 08:34:19;;;;;;;4.07;1.88;;;14.40;99.60;;;;;;5108654;28;20057;-75
2022/04/22 08:36:46;;;;;;;3.75;1.98;;;14.60;98.80;;;;;;5084942;28;20487;-77
2022/04/22 08:39:12;;;;;;;5.57;2.05;;;14.50;98.40;;;;;;5070141;28;20044;-75
2022/04/22 08:41:40;;;;;;;4.07;1.90;;;14.60;98.00;;;;;;5070409;28;20101;-76
2022/04/22 08:44:07;;;;;;;4.22;1.50;;;14.70;98.60;;;;;;5087221;28;20040;-76
2022/04/22 08:52:02;;;;;;;5.45;2.30;;;15.10;96.50;;;;;;5071375;28;20059;-76
2022/04/22 08:54:29;;;;;;;3.75;2.05;;;15.10;96.10;;;;;;5098954;28;20047;-76
2022/04/22 08:56:55;;;;;;;3.80;1.85;;;15.10;96.40;;;;;;5071082;28;20051;-75
2022/04/22 08:59:21;;;;;;;2.78;1.90;;;15.10;96.30;;;;;;5077441;28;20477;-75
2022/04/22 09:01:48;;;;;;;4.55;1.90;;;15.20;96.80;;;;;;5071330;28;20096;-77
2022/04/22 09:04:13;;;;;;;2.92;1.90;;;15.40;96.80;;;;;;5077928;28;20505;-75
2022/04/22 09:06:40;;;;;;;2.97;1.52;;;15.40;95.50;;;;;;5068670;28;20040;-76
2022/04/22 09:09:06;;;;;;;2.75;1.63;;;15.60;96.00;;;;;;5068326;28;20097;-77
2022/04/22 09:11:37;;;;;;;2.17;1.80;;;15.90;96.10;;;;;;5086517;28;20078;-75
2022/04/22 09:14:04;;;;;;;3.42;1.70;;;15.90;95.50;;;;;;5091113;28;20040;-75
2022/04/22 09:16:29;;;;;;;2.45;1.60;;;15.80;94.40;;;;;;5086582;28;20415;-75
2022/04/22 09:19:00;;;;;;;2.63;1.60;;;15.70;94.70;;;;;;5096914;28;20044;-76
2022/04/22 09:21:26;;;;;;;2.08;1.30;;;15.60;94.50;;;;;;5083148;28;20035;-76
2022/04/22 09:23:53;;;;;;;3.28;2.00;;;15.80;94.60;;;;;;5096643;28;20047;-75
2022/04/22 09:26:23;;;;;;;3.75;1.70;;;15.80;94.60;;;;;;5096449;28;20040;-73
2022/04/22 09:28:57;;;;;;;2.67;1.88;;;16.10;94.90;;;;;;5090446;28;20044;-76
2022/04/22 09:31:24;;;;;;;3.70;2.17;;;16.20;94.50;;;;;;5073896;28;20052;-76
2022/04/22 09:33:50;;;;;;;3.08;1.77;;;16.00;94.40;;;;;;5088191;28;20094;-77
2022/04/22 09:44:56;;;;;;;6.38;2.30;;;16.50;93.30;;;;;;5090251;28;20378;-77
2022/04/22 09:47:26;;;;;;;2.33;1.55;;;16.30;93.40;;;;;;5082427;28;20570;-77
2022/04/22 09:49:52;;;;;;;3.17;1.83;;;16.40;93.90;;;;;;5065623;28;20054;-78
2022/04/22 09:52:28;;;;;;;4.10;2.00;;;16.50;94.00;;;;;;5064846;28;20036;-75
2022/04/22 09:55:07;;;;;;;3.42;1.90;;;16.20;93.70;;;;;;5090554;28;20039;-77
2022/04/22 09:57:56;;;;;;;3.33;1.70;;;16.40;93.60;;;;;;5096769;28;20055;-77
2022/04/22 10:00:24;;;;;;;3.20;1.90;;;16.70;93.90;;;;;;5076569;28;20060;-77
2022/04/22 10:02:51;;;;;;;3.95;1.95;;;16.80;93.20;;;;;;5074702;28;20036;-77
2022/04/22 10:05:26;;;;;;;3.50;1.95;;;16.90;93.30;;;;;;5109367;28;20078;-77
2022/04/22 10:07:56;;;;;;;3.38;2.22;;;17.00;93.10;;;;;;5090078;28;20169;-77
2022/04/22 10:10:35;;;;;;;3.03;1.65;;;17.00;93.00;;;;;;5071028;28;20115;-76
2022/04/22 10:13:04;;;;;;;3.28;2.20;;;17.20;93.00;;;;;;5085508;28;20047;-76
2022/04/22 10:15:35;;;;;;;3.30;2.00;;;17.20;92.00;;;;;;5102151;28;20307;-76
2022/04/22 10:18:01;;;;;;;6.05;2.13;;;17.00;92.10;;;;;;5094042;28;20436;-76
2022/04/22 10:20:27;;;;;;;3.50;1.85;;;16.90;92.10;;;;;;5065902;28;20069;-77
2022/04/22 10:22:53;;;;;;;2.97;1.95;;;17.10;92.40;;;;;;5081109;28;20047;-78
2022/04/22 10:25:19;;;;;;;2.38;1.80;;;17.30;92.50;;;;;;5096707;28;20432;-77
2022/04/22 10:27:46;;;;;;;5.43;1.88;;;17.20;92.10;;;;;;5070849;28;20495;-77
2022/04/22 10:30:14;;;;;;;3.05;1.90;;;17.40;92.00;;;;;;5085558;28;20040;-77
2022/04/22 10:32:41;;;;;;;4.35;2.05;;;17.60;92.30;;;;;;5072858;28;20162;-81
2022/04/22 10:35:08;;;;;;;2.67;1.70;;;17.50;91.80;;;;;;5073571;28;20048;-80
2022/04/22 10:37:38;;;;;;;4.07;1.98;;;17.70;92.20;;;;;;5084248;28;20063;-80
2022/04/22 10:40:04;;;;;;;2.85;2.08;;;17.70;91.30;;;;;;5056447;28;20063;-80
2022/04/22 10:42:30;;;;;;;5.22;1.98;;;17.70;91.60;;;;;;5074992;28;20044;-81
2022/04/22 10:47:51;;;;;;;3.28;1.80;;;18.00;91.50;;;;;;5097063;28;20055;-81
2022/04/22 10:50:29;;;;;;;;;;;18.30;91.50;;;;;;5096344;28;20071;-80
2022/04/22 10:53:03;;;;;;;3.88;2.10;;;18.20;90.90;;;;;;5101698;28;19916;-80
2022/04/22 10:55:36;;;;;;;5.45;2.10;;;18.20;90.60;;;;;;5070425;28;20036;-80
2022/04/22 10:58:30;;;;;;;4.65;2.20;;;18.30;91.10;;;;;;5094570;28;20578;-75
2022/04/22 11:00:59;;;;;;;4.28;2.50;;;18.30;90.80;;;;;;5069618;28;20123;-75
2022/04/22 11:03:31;;;;;;;3.60;1.90;;;18.30;90.80;;;;;;5090298;28;20101;-75
2022/04/22 11:06:07;;;;;;;4.60;2.05;;;18.50;90.40;;;;;;5092423;28;20127;-76
2022/04/22 11:08:37;;;;;;;3.60;2.08;;;18.50;90.20;;;;;;5089633;28;20044;-76
2022/04/22 11:11:15;;;;;;;3.35;2.10;;;18.40;90.10;;;;;;5100291;28;20047;-76
2022/04/22 11:13:43;;;;;;;3.65;2.20;;;18.30;87.50;;;;;;5087742;28;20087;-75
2022/04/22 11:16:14;;;;;;;4.18;2.38;;;18.40;88.30;;;;;;5091012;28;20105;-76
2022/04/22 11:18:43;;;;;;;3.78;1.75;;;18.40;88.60;;;;;;5071247;28;20041;-75
2022/04/22 11:21:23;;;;;;;3.63;2.17;;;18.60;89.40;;;;;;5073376;28;20036;-75
2022/04/22 11:23:48;;;;;;;4.95;2.55;;;18.60;88.20;;;;;;5089931;28;20040;-77
2022/04/22 11:26:15;;;;;;;;;;;18.50;88.10;;;;;;5091998;28;20040;-79
2022/04/22 11:28:42;;;;;;;3.42;2.17;;;18.60;86.90;;;;;;5092836;28;19994;-76
2022/04/22 11:31:10;;;;;;;5.95;2.65;;;18.60;86.90;;;;;;5088947;28;20482;-76
2022/04/22 11:34:02;;;;;;;5.50;2.33;;;18.50;86.90;;;;;;5084285;28;20062;-76
2022/04/22 11:36:28;;;;;;;2.90;2.35;;;18.60;86.40;;;;;;5080466;28;20516;-77
2022/04/22 11:38:56;;;;;;;3.42;2.40;;;18.60;86.50;;;;;;5090499;28;20406;-77
2022/04/22 11:41:22;;;;;;;3.00;1.98;;;18.60;86.10;;;;;;5088909;28;20039;-77
2022/04/22 11:43:48;;;;;;;4.05;2.30;;;19.00;86.80;;;;;;5090947;28;20062;-77
2022/04/22 11:46:15;;;;;;;;;;;19.10;86.50;;;;;;5090918;28;20043;-77
2022/04/22 11:48:46;;;;;;;2.42;1.90;;;18.80;85.40;;;;;;5073464;28;20010;-77
2022/04/22 11:51:13;;;;;;;4.30;2.38;;;19.10;85.60;;;;;;5090725;28;20052;-77
2022/04/22 11:53:45;;;;;;;5.97;2.13;;;19.10;83.70;;;;;;5073532;28;20048;-77
2022/04/22 11:56:16;;;;;;;2.75;2.15;;;18.90;84.70;;;;;;5074246;28;20040;-78
2022/04/22 11:58:42;;;;;;;3.15;2.10;;;19.20;84.50;;;;;;5074273;28;20127;-78
2022/04/22 12:06:42;;;;;;;5.78;2.97;;;19.00;83.00;;;;;;5086270;28;20044;-77
2022/04/22 12:09:07;;;;;;;4.97;2.85;;;19.00;83.60;;;;;;5078409;28;20037;-77
2022/04/22 12:11:41;;;;;;;;;;;18.90;83.10;;;;;;5078084;28;20343;-76
2022/04/22 12:14:07;;;;;;;5.18;2.72;;;18.90;83.20;;;;;;5084650;28;19923;-77
2022/04/22 12:16:33;;;;;;;4.40;2.67;;;19.10;83.30;;;;;;5090333;28;20040;-76
2022/04/22 12:19:00;;;;;;;3.85;2.80;;;19.20;83.80;;;;;;5090155;28;20032;-75
2022/04/22 12:21:31;;;;;;;6.32;2.67;;;19.40;82.20;;;;;;5089905;28;20394;-77
2022/04/22 12:24:00;;;;;;;3.55;2.38;;;19.30;82.80;;;;;;5073218;28;20040;-78
2022/04/22 12:26:30;;;;;;;4.97;2.42;;;19.40;82.70;;;;;;5079424;28;20115;-77
2022/04/22 12:29:20;;;;;;;3.88;2.63;;;19.50;82.00;;;;;;5069755;28;20146;-77
2022/04/22 12:31:49;;;;;;;3.15;2.20;;;19.40;81.70;;;;;;5106046;28;20509;-77
2022/04/22 12:34:26;;;;;;;4.85;2.60;;;19.50;82.20;;;;;;5063024;28;20174;-77
2022/04/22 12:36:51;;;;;;;5.30;2.50;;;19.30;81.60;;;;;;5087458;28;20546;-77
2022/04/22 12:39:32;;;;;;;;;;;19.40;82.00;;;;;;5089693;28;20070;-77
2022/04/22 12:41:58;;;;;;;4.85;2.65;;;19.40;82.10;;;;;;5089773;28;19924;-77
2022/04/22 12:44:23;;;;;;;;;;;19.40;81.70;;;;;;5073177;28;20606;-76
2022/04/22 12:52:47;;;;;;;5.03;2.67;;;19.80;82.50;;;;;;5051125;28;20113;-78
2022/04/22 12:55:17;;;;;;;5.10;2.60;;;19.70;81.50;;;;;;5070319;28;20060;-79
2022/04/22 12:57:42;;;;;;;5.25;2.67;;;19.90;82.10;;;;;;5066158;28;20474;-79
2022/04/22 13:00:16;;;;;;;;;;;20.00;81.90;;;;;;5069710;28;20036;-79
2022/04/22 13:02:42;;;;;;;5.57;3.30;;;19.90;81.80;;;;;;5079282;28;20335;-79
2022/04/22 13:05:15;;;;;;;;;;;19.60;82.20;;;;;;5070450;28;20043;-79
2022/04/22 13:07:46;;;;;;;3.78;2.63;;;19.60;82.50;;;;;;5095207;28;20034;-77
2022/04/22 13:10:13;;;;;;;6.00;3.00;;;19.90;83.50;;;;;;5098159;28;20056;-78
2022/04/22 13:12:41;;;;;;;3.00;2.20;;;20.20;83.10;;;;;;5073433;28;20090;-77
2022/04/22 13:15:17;;;;;;;5.03;3.05;;;20.30;82.30;;;;;;5096750;28;20043;-79
2022/04/22 13:17:44;;;;;;;5.18;2.85;;;20.20;81.50;;;;;;5072723;28;20346;-79
2022/04/22 13:20:13;;;;;;;3.58;3.10;;;20.10;83.00;;;;;;5052739;28;20045;-79
2022/04/22 13:22:39;;;;;;;5.72;3.53;;;19.90;82.60;;;;;;5090687;28;20063;-80
2022/04/22 13:25:06;;;;;;;5.72;3.28;;;19.80;82.60;;;;;;5082819;28;20051;-79
2022/04/22 13:27:32;;;;;;;3.47;2.50;;;19.60;83.10;;;;;;5090007;28;20516;-79
2022/04/22 13:29:58;;;;;;;;;;;19.80;84.10;;;;;;5089190;28;20123;-79
2022/04/22 13:32:23;;;;;;;5.05;2.70;;;20.10;83.90;;;;;;5091292;28;19915;-79
2022/04/22 13:34:49;;;;;;;;;;;20.10;83.40;;;;;;5073253;28;20501;-79
2022/04/22 13:37:15;;;;;;;3.95;2.85;;;19.70;83.40;;;;;;5088062;28;20024;-79
2022/04/22 13:39:42;;;;;;;;;;;19.50;83.10;;;;;;5093402;28;20109;-79
2022/04/22 13:42:08;;;;;;;4.85;3.15;;;19.60;84.00;;;;;;5072138;28;19927;-79
2022/04/22 13:52:47;;;;;;;4.90;3.03;;;20.40;82.40;;;;;;5094840;28;20064;-79
2022/04/22 13:55:13;;;;;;;;;;;20.30;81.60;;;;;;5062635;28;20055;-79
2022/04/22 13:57:39;;;;;;;4.30;2.90;;;20.30;80.70;;;;;;5080143;28;19923;-79
2022/04/22 14:00:06;;;;;;;5.80;3.13;;;20.30;80.40;;;;;;5085119;28;20040;-79
2022/04/22 14:02:32;;;;;;;4.03;2.50;;;20.30;80.80;;;;;;5083095;28;20090;-79
2022/04/22 14:04:58;;;;;;;;;;;20.50;81.90;;;;;;5068752;28;20038;-80
2022/04/22 14:07:24;;;;;;;4.13;2.72;;;20.50;82.90;;;;;;5068306;28;19916;-80
2022/04/22 14:09:49;;;;;;;;;;;20.50;81.60;;;;;;5069385;28;20119;-81
2022/04/22 14:12:15;;;;;;;5.25;2.67;;;20.50;81.50;;;;;;5065786;28;19925;-80
2022/04/22 14:14:43;;;;;;;;;;;20.40;82.00;;;;;;5061354;28;20441;-79
2022/04/22 14:17:10;;;;;;;5.68;3.05;;;20.20;81.70;;;;;;5080640;28;19932;-81